Time;durP1;ratioP1;P1;durP2;ratioP2;P2;SDS_P1;SDS_P2;PMS_P1;PMS_P2;Temp;Humidity;BMP_temperature;BMP_pressure;BME280_temperature;BME280_humidity;BME280_pressure;Samples;Min_cycle;Max_cycle;Signal;HPM_P1;HPM_P2
2022/06/12 00:01:48;;;;;;;4.35;3.95;;;;;;;19.40;100.00;97757.28;5042686;28;20184;-60
2022/06/12 00:04:13;;;;;;;5.20;4.15;;;;;;;19.44;100.00;97758.53;5040208;28;20236;-59
2022/06/12 00:06:39;;;;;;;4.60;3.95;;;;;;;19.33;100.00;97753.69;5045638;28;20654;-59
2022/06/12 00:09:04;;;;;;;3.67;3.38;;;;;;;19.32;100.00;97752.06;5037449;28;20358;-60
2022/06/12 00:11:30;;;;;;;4.85;3.45;;;;;;;19.30;100.00;97759.31;5038899;28;20268;-60
2022/06/12 00:13:59;;;;;;;4.20;3.88;;;;;;;19.32;100.00;97752.06;5024561;28;20194;-59
2022/06/12 00:16:26;;;;;;;4.18;3.88;;;;;;;19.38;100.00;97759.25;5043356;28;20216;-59
2022/06/12 00:18:52;;;;;;;4.30;3.78;;;;;;;19.36;100.00;97753.38;5042007;28;20264;-60
2022/06/12 00:21:19;;;;;;;4.63;4.22;;;;;;;19.33;100.00;97746.66;5028488;28;20749;-61
2022/06/12 00:23:50;;;;;;;3.83;3.45;;;;;;;19.33;100.00;97745.81;5037867;28;20748;-61
2022/06/12 00:26:23;;;;;;;3.88;3.50;;;;;;;19.36;100.00;97745.50;5040669;28;20288;-60
2022/06/12 00:28:54;;;;;;;3.92;3.63;;;;;;;19.20;100.00;97742.94;5028732;28;20281;-61
2022/06/12 00:31:19;;;;;;;4.80;4.50;;;;;;;19.21;100.00;97734.94;5017697;28;20513;-61
2022/06/12 00:33:45;;;;;;;5.85;4.18;;;;;;;19.29;100.00;97740.13;5020147;28;21126;-60
2022/06/12 00:36:10;;;;;;;4.53;3.90;;;;;;;19.26;100.00;97737.88;5041174;28;20196;-60
2022/06/12 00:38:39;;;;;;;4.18;3.85;;;;;;;19.19;100.00;97738.69;5043376;28;20239;-62
2022/06/12 00:41:04;;;;;;;7.53;4.00;;;;;;;19.28;100.00;97740.28;5039207;28;20217;-61
2022/06/12 00:43:31;;;;;;;6.55;3.83;;;;;;;19.24;100.00;97739.03;5034257;28;20187;-61
2022/06/12 00:45:59;;;;;;;4.10;3.80;;;;;;;19.22;100.00;97738.38;5038799;28;20185;-60
2022/06/12 00:48:34;;;;;;;5.00;4.50;;;;;;;19.16;100.00;97742.47;5040119;28;20216;-61
2022/06/12 00:51:20;;;;;;;3.30;3.10;;;;;;;19.25;100.00;97740.66;5035782;28;20192;-61
2022/06/12 00:53:58;;;;;;;4.57;3.58;;;;;;;19.30;100.00;97739.13;5038173;28;20173;-60
2022/06/12 00:56:29;;;;;;;4.72;3.72;;;;;;;19.25;100.00;97731.00;5034874;28;20216;-61
2022/06/12 00:59:04;;;;;;;3.90;3.60;;;;;;;19.19;100.00;97736.06;5034795;28;20251;-60
2022/06/12 01:01:35;;;;;;;4.43;3.97;;;;;;;19.15;100.00;97737.41;5035219;28;20264;-60
2022/06/12 01:06:47;;;;;;;3.30;3.10;;;;;;;19.25;100.00;97741.47;5043759;28;20192;-60
2022/06/12 01:09:22;;;;;;;3.58;3.38;;;;;;;19.35;100.00;97742.03;5038454;28;20180;-61
2022/06/12 01:11:50;;;;;;;3.97;3.05;;;;;;;19.49;100.00;97748.34;5018174;28;20185;-62
2022/06/12 01:14:20;;;;;;;2.78;2.58;;;;;;;19.51;100.00;97731.41;5017067;28;20193;-61
2022/06/12 01:16:48;;;;;;;3.33;3.10;;;;;;;19.55;100.00;97737.13;5025495;28;20192;-60
2022/06/12 01:19:36;;;;;;;3.08;2.88;;;;;;;19.46;100.00;97727.72;5035526;28;20274;-60
2022/06/12 01:22:10;;;;;;;3.28;3.08;;;;;;;19.54;100.00;97725.00;5043103;28;20238;-61
2022/06/12 01:25:06;;;;;;;2.92;2.80;;;;;;;19.65;100.00;97727.22;5033305;28;20559;-61
2022/06/12 01:27:43;;;;;;;3.15;2.95;;;;;;;19.67;100.00;97726.03;5037955;28;20180;-60
2022/06/12 01:30:15;;;;;;;3.05;2.75;;;;;;;19.63;100.00;97723.94;5037390;28;20631;-60
2022/06/12 01:33:03;;;;;;;3.60;3.25;;;;;;;19.68;100.00;97719.78;5033452;28;20209;-60
2022/06/12 01:35:38;;;;;;;3.67;3.45;;;;;;;19.60;100.00;97719.88;5037113;28;20196;-61
2022/06/12 01:38:34;;;;;;;3.28;2.97;;;;;;;19.65;100.00;97714.88;5041518;28;20188;-60
2022/06/12 01:41:41;;;;;;;3.38;2.92;;;;;;;19.54;100.00;97712.72;5037001;28;20219;-62
2022/06/12 01:44:19;;;;;;;3.83;3.53;;;;;;;19.50;100.00;97721.09;5034187;28;20197;-60
2022/06/12 01:46:56;;;;;;;4.88;3.70;;;;;;;19.48;100.00;97720.47;5028821;28;20181;-61
2022/06/12 01:49:28;;;;;;;4.10;3.70;;;;;;;19.45;100.00;97724.25;5035530;28;20196;-60
2022/06/12 01:51:56;;;;;;;3.03;2.83;;;;;;;19.53;100.00;97724.19;5035962;28;20193;-61
2022/06/12 01:55:10;;;;;;;3.28;3.08;;;;;;;19.47;100.00;97719.63;5015586;28;20188;-59
2022/06/12 01:57:38;;;;;;;5.65;3.17;;;;;;;19.50;100.00;97721.09;5016421;28;20233;-59
2022/06/12 02:00:07;;;;;;;4.75;3.10;;;;;;;19.50;100.00;97724.53;5033937;28;20656;-60
2022/06/12 02:02:53;;;;;;;3.17;2.97;;;;;;;19.66;100.00;97732.28;5029419;28;20189;-60
2022/06/12 02:05:29;;;;;;;2.30;2.20;;;;;;;19.72;100.00;97728.94;5029425;28;20268;-60
2022/06/12 02:08:16;;;;;;;2.88;2.78;;;;;;;19.71;100.00;97731.75;5031240;28;20176;-60
2022/06/12 02:10:44;;;;;;;3.72;3.35;;;;;;;19.74;100.00;97732.19;5031990;28;20181;-60
2022/06/12 02:13:34;;;;;;;3.05;2.88;;;;;;;19.66;100.00;97734.91;5031134;28;20227;-59
2022/06/12 02:16:05;;;;;;;3.80;3.50;;;;;;;19.65;100.00;97727.22;5015993;28;20174;-60
2022/06/12 02:18:50;;;;;;;3.70;3.00;;;;;;;19.77;100.00;97731.81;5017605;28;20186;-60
2022/06/12 02:21:22;;;;;;;3.17;2.97;;;;;;;19.79;100.00;97723.78;5030517;28;20209;-60
2022/06/12 02:24:07;;;;;;;3.80;3.33;;;;;;;19.85;100.00;97726.50;5039232;28;20181;-61
2022/06/12 02:26:57;;;;;;;3.25;2.95;;;;;;;19.87;100.00;97726.34;5043304;28;20204;-60
2022/06/12 02:29:29;;;;;;;3.30;3.10;;;;;;;19.90;100.00;97728.59;5041731;28;20555;-60
2022/06/12 02:31:57;;;;;;;5.38;3.03;;;;;;;19.84;100.00;97722.28;5036123;28;20658;-61
2022/06/12 02:34:28;;;;;;;3.70;3.40;;;;;;;19.84;100.00;97726.69;5042111;28;20242;-61
2022/06/12 02:37:26;;;;;;;5.20;3.40;;;;;;;19.80;100.00;97731.47;5019506;28;20174;-60
2022/06/12 02:40:06;;;;;;;4.38;4.03;;;;;;;19.83;100.00;97736.41;5015588;28;20888;-61
2022/06/12 02:42:37;;;;;;;3.35;3.05;;;;;;;19.78;100.00;97732.66;5043544;28;20189;-59
2022/06/12 02:45:12;;;;;;;5.65;3.58;;;;;;;19.86;100.00;97748.31;5049089;28;20267;-60
2022/06/12 02:47:41;;;;;;;4.13;3.80;;;;;;;19.76;100.00;97747.78;5045761;28;20192;-60
2022/06/12 02:50:09;;;;;;;4.35;3.92;;;;;;;19.72;100.00;97751.75;5043833;28;20173;-60
2022/06/12 02:52:44;;;;;;;4.05;3.78;;;;;;;19.56;100.00;97757.13;5032031;28;20206;-60
2022/06/12 02:55:16;;;;;;;4.20;3.80;;;;;;;19.46;100.00;97746.88;5033319;28;20177;-59
2022/06/12 02:57:44;;;;;;;11.25;4.57;;;;;;;19.48;100.00;97757.19;5018696;28;20234;-59
2022/06/12 03:00:22;;;;;;;4.40;4.00;;;;;;;19.40;100.00;97765.94;5028974;28;20194;-59
2022/06/12 03:02:47;;;;;;;5.47;3.80;;;;;;;19.37;100.00;97770.72;5040699;28;20266;-60
2022/06/12 03:05:26;;;;;;;3.75;3.45;;;;;;;19.43;100.00;97770.84;5036509;28;20690;-60
2022/06/12 03:08:01;;;;;;;4.38;3.95;;;;;;;19.45;100.00;97763.63;5040187;28;20177;-61
2022/06/12 03:10:32;;;;;;;3.97;3.03;;;;;;;19.54;100.00;97756.50;5038626;28;20184;-60
2022/06/12 03:13:00;;;;;;;3.83;3.53;;;;;;;19.66;100.00;97761.16;5038756;28;20177;-60
2022/06/12 03:15:40;;;;;;;3.78;3.53;;;;;;;19.69;100.00;97752.13;5041660;28;20181;-60
2022/06/12 03:18:11;;;;;;;3.72;3.45;;;;;;;19.63;100.00;97740.50;5020110;28;20242;-60
2022/06/12 03:21:01;;;;;;;3.70;3.35;;;;;;;19.56;100.00;97729.09;5019786;28;20193;-61
2022/06/12 03:24:08;;;;;;;4.55;3.88;;;;;;;19.47;100.00;97734.59;5037010;28;20173;-59
2022/06/12 03:26:50;;;;;;;4.60;4.25;;;;;;;19.44;100.00;97729.66;5034995;28;20669;-61
2022/06/12 03:29:25;;;;;;;4.35;3.95;;;;;;;19.45;100.00;97718.19;5034942;28;20393;-59
2022/06/12 03:32:15;;;;;;;4.78;4.13;;;;;;;19.39;100.00;97724.13;5039055;28;20193;-60
2022/06/12 03:35:05;;;;;;;4.47;4.15;;;;;;;19.35;100.00;97717.63;5032826;28;20178;-60
2022/06/12 03:37:46;;;;;;;4.10;3.80;;;;;;;19.34;100.00;97729.09;5039600;28;20196;-60
2022/06/12 03:40:17;;;;;;;4.65;3.80;;;;;;;19.21;100.00;97734.94;5037978;28;20207;-60
2022/06/12 03:43:01;;;;;;;4.95;3.95;;;;;;;18.98;100.00;97739.31;5040181;28;20185;-61
2022/06/12 03:45:33;;;;;;;5.07;3.70;;;;;;;18.92;100.00;97744.44;5035985;28;20599;-59
2022/06/12 03:48:07;;;;;;;4.22;3.80;;;;;;;18.98;100.00;97738.50;5037711;28;20681;-61
2022/06/12 03:50:45;;;;;;;3.30;3.10;;;;;;;19.00;100.00;97731.28;5036202;28;20177;-60
2022/06/12 03:53:18;;;;;;;3.45;3.15;;;;;;;19.02;100.00;97726.69;5037610;28;20181;-60
2022/06/12 03:58:47;;;;;;;3.83;3.53;;;;;;;18.90;100.00;97707.09;5031249;28;20240;-61
2022/06/12 04:01:14;;;;;;;3.38;3.13;;;;;;;19.11;100.00;97721.19;5017879;28;20292;-61
2022/06/12 04:03:43;;;;;;;3.70;3.40;;;;;;;19.22;100.00;97725.25;5019777;28;20189;-61
2022/06/12 04:06:15;;;;;;;3.50;3.30;;;;;;;19.21;100.00;97719.19;5027400;28;20212;-61
2022/06/12 04:09:04;;;;;;;4.20;3.30;;;;;;;19.16;100.00;97725.91;5038868;28;20257;-60
2022/06/12 04:11:36;;;;;;;4.25;3.92;;;;;;;19.11;100.00;97715.97;5033875;28;20226;-60
2022/06/12 04:14:06;;;;;;;4.38;3.83;;;;;;;19.16;100.00;97726.75;5041085;28;20184;-60
2022/06/12 04:16:46;;;;;;;3.67;3.38;;;;;;;19.22;100.00;97740.97;5034842;28;20217;-60
2022/06/12 04:19:22;;;;;;;3.67;3.35;;;;;;;19.09;100.00;97736.31;5039636;28;20183;-60
2022/06/12 04:22:09;;;;;;;4.05;3.75;;;;;;;19.14;100.00;97735.78;5017278;28;20193;-60
2022/06/12 04:24:42;;;;;;;4.40;3.92;;;;;;;19.11;100.00;97741.38;5019264;28;20255;-60
2022/06/12 04:27:28;;;;;;;5.57;4.22;;;;;;;19.12;100.00;97743.81;5037188;28;20185;-60
2022/06/12 04:29:57;;;;;;;3.78;3.47;;;;;;;19.15;100.00;97745.28;5036255;28;20192;-60
2022/06/12 04:32:24;;;;;;;4.57;4.18;;;;;;;19.07;100.00;97748.75;5030556;28;20197;-60
2022/06/12 04:34:50;;;;;;;4.50;4.10;;;;;;;19.07;100.00;97748.75;5034878;28;20190;-61
2022/06/12 04:37:18;;;;;;;4.80;3.78;;;;;;;19.15;100.00;97755.75;5034669;28;20241;-60
2022/06/12 04:39:44;;;;;;;4.45;4.15;;;;;;;19.25;100.00;97759.00;5044003;28;20284;-61
2022/06/12 04:42:13;;;;;;;3.67;3.42;;;;;;;19.17;100.00;97769.53;5018432;28;20341;-60
2022/06/12 04:44:40;;;;;;;5.75;4.53;;;;;;;19.21;100.00;97773.47;5018605;28;20185;-60
2022/06/12 04:47:07;;;;;;;5.85;3.70;;;;;;;19.07;100.00;97768.94;5022557;28;20209;-60
2022/06/12 04:49:36;;;;;;;6.72;4.78;;;;;;;19.20;100.00;97775.25;5039609;28;20186;-61
2022/06/12 04:52:04;;;;;;;6.13;5.18;;;;;;;19.29;100.00;97783.91;5036647;28;20256;-60
2022/06/12 04:54:31;;;;;;;4.35;3.95;;;;;;;19.23;100.00;97779.38;5030058;28;20557;-61
2022/06/12 04:56:58;;;;;;;4.63;4.25;;;;;;;19.09;100.00;97782.69;5042839;28;20209;-59
2022/06/12 04:59:23;;;;;;;3.00;2.80;;;;;;;19.17;100.00;97785.28;5037739;28;20225;-61
2022/06/12 05:01:49;;;;;;;3.60;3.30;;;;;;;19.22;100.00;97788.19;5043120;28;20222;-59
2022/06/12 05:04:16;;;;;;;2.97;2.72;;;;;;;19.07;100.00;97795.97;5036475;28;20180;-60
2022/06/12 05:06:44;;;;;;;2.72;2.63;;;;;;;19.07;100.00;97789.91;5038580;28;20698;-60
2022/06/12 05:09:11;;;;;;;3.47;3.17;;;;;;;19.09;100.00;97791.38;5039318;28;20687;-60
2022/06/12 05:11:36;;;;;;;2.92;2.72;;;;;;;19.06;100.00;97802.19;5033733;28;20192;-60
2022/06/12 05:14:02;;;;;;;3.17;2.95;;;;;;;19.04;100.00;97801.56;5029248;28;20174;-59
2022/06/12 05:16:33;;;;;;;3.92;2.60;;;;;;;18.96;100.00;97798.16;5044273;28;20189;-59
2022/06/12 05:18:59;;;;;;;3.67;3.03;;;;;;;19.04;100.00;97805.97;5042027;28;20180;-61
2022/06/12 05:21:27;;;;;;;3.08;2.70;;;;;;;19.10;100.00;97807.91;5034932;28;21000;-60
2022/06/12 05:23:54;;;;;;;3.50;3.30;;;;;;;19.14;100.00;97809.22;5039643;28;20189;-61
2022/06/12 05:26:20;;;;;;;3.10;2.90;;;;;;;19.13;100.00;97815.44;5035591;28;20185;-61
2022/06/12 05:28:47;;;;;;;4.00;3.28;;;;;;;18.97;100.00;97810.28;5040328;28;20227;-60
2022/06/12 05:31:12;;;;;;;2.92;2.80;;;;;;;18.78;100.00;97801.03;5046972;28;20250;-61
2022/06/12 05:33:38;;;;;;;3.13;2.70;;;;;;;18.84;100.00;97804.78;5038176;28;20654;-59
2022/06/12 05:36:06;;;;;;;4.38;2.40;;;;;;;18.69;100.00;97811.72;5034143;28;20189;-59
2022/06/12 05:38:32;;;;;;;5.40;2.40;;;;;;;18.75;100.00;97811.88;5040538;28;20178;-60
2022/06/12 05:40:58;;;;;;;2.28;2.15;;;;;;;18.83;100.00;97817.06;5042660;28;20677;-60
2022/06/12 05:43:23;;;;;;;2.40;2.30;;;;;;;18.88;100.00;97811.34;5032362;28;20193;-59
2022/06/12 05:45:49;;;;;;;2.53;2.30;;;;;;;18.99;100.00;97818.78;5015442;28;20209;-61
2022/06/12 05:48:18;;;;;;;3.80;2.20;;;;;;;19.18;100.00;97813.94;5017497;28;20243;-61
2022/06/12 05:51:03;;;;;;;2.20;2.05;;;;;;;19.26;100.00;97824.44;5031518;28;20279;-60
2022/06/12 05:53:31;;;;;;;2.40;2.20;;;;;;;19.31;100.00;97821.28;5037066;28;20178;-60
2022/06/12 05:55:57;;;;;;;2.20;2.10;;;;;;;19.26;100.00;97815.72;5035253;28;20280;-61
2022/06/12 05:58:26;;;;;;;2.58;2.40;;;;;;;19.25;100.00;97819.34;5026877;28;20210;-61
2022/06/12 06:00:52;;;;;;;1.95;1.85;;;;;;;19.31;100.00;97823.91;5045483;28;20193;-61
2022/06/12 06:03:18;;;;;;;2.20;2.10;;;;;;;19.40;100.00;97817.63;5037255;28;20691;-59
2022/06/12 06:05:47;;;;;;;2.72;2.53;;;;;;;19.43;100.00;97833.00;5036878;28;20189;-61
2022/06/12 06:08:13;;;;;;;2.55;2.40;;;;;;;19.40;100.00;97828.13;5036263;28;20184;-59
2022/06/12 06:10:39;;;;;;;2.92;2.72;;;;;;;19.43;100.00;97833.00;5038926;28;20181;-59
2022/06/12 06:13:05;;;;;;;2.45;2.25;;;;;;;19.42;100.00;97831.38;5039686;28;20564;-61
2022/06/12 06:15:31;;;;;;;3.20;2.72;;;;;;;19.43;100.00;97839.09;5036121;28;20185;-60
2022/06/12 06:17:56;;;;;;;3.40;3.10;;;;;;;19.34;100.00;97834.03;5035331;28;20213;-59
2022/06/12 06:20:26;;;;;;;4.07;3.00;;;;;;;19.33;100.00;97838.47;5042156;28;20189;-60
2022/06/12 06:22:53;;;;;;;3.00;2.80;;;;;;;19.33;100.00;97838.47;5036553;28;20335;-59
2022/06/12 06:25:20;;;;;;;2.78;2.63;;;;;;;19.34;100.00;97847.16;5039325;28;20667;-59
2022/06/12 06:27:45;;;;;;;2.97;2.78;;;;;;;19.43;100.00;97840.88;5015397;28;20276;-59
2022/06/12 06:30:12;;;;;;;3.10;2.90;;;;;;;19.41;100.00;97840.25;5017105;28;20199;-59
2022/06/12 06:32:38;;;;;;;2.45;2.25;;;;;;;19.38;100.00;97851.91;5028059;28;20242;-60
2022/06/12 06:35:07;;;;;;;2.55;2.45;;;;;;;19.35;100.00;97852.22;5041484;28;20177;-59
2022/06/12 06:37:33;;;;;;;2.65;2.50;;;;;;;19.37;100.00;97854.69;5034684;28;20211;-60
2022/06/12 06:39:59;;;;;;;4.28;2.90;;;;;;;19.31;100.00;97850.13;5037555;28;20674;-60
2022/06/12 06:42:24;;;;;;;6.18;2.85;;;;;;;19.36;100.00;97837.31;5035780;28;20189;-60
2022/06/12 06:47:36;;;;;;;3.17;2.97;;;;;;;19.42;100.00;97852.38;5025894;28;20303;-59
2022/06/12 06:50:04;;;;;;;3.30;3.10;;;;;;;19.57;100.00;97859.31;5014620;28;20178;-60
2022/06/12 06:52:29;;;;;;;3.35;3.15;;;;;;;19.59;100.00;97865.19;5017910;28;20185;-60
2022/06/12 06:54:54;;;;;;;3.33;3.03;;;;;;;19.68;100.00;97869.41;5032464;28;20177;-60
2022/06/12 06:57:20;;;;;;;3.47;3.25;;;;;;;19.68;100.00;97869.41;5029778;28;20711;-59
2022/06/12 06:59:46;;;;;;;3.97;3.40;;;;;;;19.69;100.00;97878.91;5040509;28;20205;-60
2022/06/12 07:02:11;;;;;;;3.20;3.00;;;;;;;19.68;100.00;97873.84;5037956;28;20196;-61
2022/06/12 07:04:38;;;;;;;3.03;2.83;;;;;;;19.71;100.00;97868.25;5040729;28;20190;-60
2022/06/12 07:07:04;;;;;;;4.78;2.90;;;;;;;19.83;100.00;97872.09;5037123;28;20239;-59
2022/06/12 07:09:29;;;;;;;3.90;2.72;;;;;;;19.82;100.00;97897.53;5032353;28;20185;-61
2022/06/12 07:11:55;;;;;;;2.92;2.72;;;;;;;19.83;100.00;97899.19;5038665;28;20181;-60
2022/06/12 07:14:20;;;;;;;2.55;2.35;;;;;;;19.80;100.00;97888.19;5044885;28;20624;-60
2022/06/12 07:16:46;;;;;;;3.33;2.85;;;;;;;19.85;100.00;97885.84;5045825;28;20177;-60
2022/06/12 07:19:11;;;;;;;2.97;2.78;;;;;;;19.90;100.00;97891.41;5041333;28;20189;-61
2022/06/12 07:21:37;;;;;;;2.78;2.67;;;;;;;19.99;100.00;97890.38;5036678;28;20592;-60
2022/06/12 07:24:03;;;;;;;3.10;2.85;;;;;;;20.07;100.00;97885.91;5044769;28;20189;-61
2022/06/12 07:26:36;;;;;;;2.60;2.50;;;;;;;20.21;100.00;97886.91;5040903;28;20765;-60
2022/06/12 07:29:03;;;;;;;2.90;2.70;;;;;;;20.35;100.00;97891.38;5037807;28;20265;-60
2022/06/12 07:31:30;;;;;;;3.33;3.03;;;;;;;20.51;100.00;97893.88;5018592;28;20653;-61
2022/06/12 07:33:56;;;;;;;3.17;2.88;;;;;;;20.64;100.00;97888.81;5020539;28;20232;-60
2022/06/12 07:36:22;;;;;;;3.00;2.90;;;;;;;20.72;100.00;97886.06;5034885;28;20188;-60
2022/06/12 07:38:49;;;;;;;2.72;2.47;;;;;;;20.82;100.00;97886.63;5036650;28;20188;-60
2022/06/12 07:41:16;;;;;;;3.17;2.97;;;;;;;20.92;100.00;97892.47;5035962;28;20193;-59
2022/06/12 07:43:43;;;;;;;5.10;2.97;;;;;;;21.05;100.00;97888.19;5047279;28;20185;-60
2022/06/12 07:46:13;;;;;;;3.00;2.80;;;;;;;21.11;100.00;97897.16;5034673;28;20655;-61
2022/06/12 07:48:39;;;;;;;3.20;2.90;;;;;;;21.19;100.00;97899.69;5041021;28;20205;-61
2022/06/12 07:51:14;;;;;;;4.60;3.63;;;;;;;21.23;100.00;97887.81;5038199;28;20188;-60
2022/06/12 07:53:40;;;;;;;2.20;2.10;;;;;;;21.07;100.00;97885.38;5038582;28;20181;-61
2022/06/12 07:56:07;;;;;;;2.35;2.25;;;;;;;21.08;100.00;97887.00;5040642;28;20251;-60
2022/06/12 07:58:33;;;;;;;2.67;2.58;;;;;;;20.99;100.00;97896.81;5039384;28;20220;-60
2022/06/12 08:01:03;;;;;;;2.90;2.70;;;;;;;21.02;100.00;97882.47;5033867;28;20225;-61
2022/06/12 08:03:29;;;;;;;2.85;2.65;;;;;;;21.08;100.00;97887.00;5031648;28;20718;-60
2022/06/12 08:05:55;;;;;;;3.00;2.80;;;;;;;21.09;100.00;97891.28;5037647;28;21134;-60
2022/06/12 08:08:21;;;;;;;4.47;2.67;;;;;;;21.19;100.00;97889.16;5034541;28;20239;-61
2022/06/12 08:10:47;;;;;;;3.85;2.60;;;;;;;21.22;100.00;97896.72;5037737;28;20197;-60
2022/06/12 08:13:13;;;;;;;3.35;3.05;;;;;;;21.08;100.00;97895.72;5037414;28;20184;-60
2022/06/12 08:15:43;;;;;;;7.05;3.40;;;;;;;21.07;100.00;97906.41;5039098;28;20181;-61
2022/06/12 08:18:09;;;;;;;3.00;2.80;;;;;;;21.10;100.00;97900.81;5036252;28;20680;-61
2022/06/12 08:20:37;;;;;;;5.25;3.72;;;;;;;21.27;100.00;97895.16;5042808;28;20193;-60
2022/06/12 08:23:26;;;;;;;8.68;2.65;;;;;;;21.42;100.00;97905.66;5040828;28;20196;-60
2022/06/12 08:26:05;;;;;;;5.20;2.92;;;;;;;21.53;100.00;97902.53;5034997;28;20168;-60
2022/06/12 08:28:37;;;;;;;6.68;2.45;;;;;;;21.55;100.00;97905.78;5028312;28;20255;-60
2022/06/12 08:31:06;;;;;;;2.80;2.60;;;;;;;21.62;100.00;97915.41;5043488;28;20208;-60
2022/06/12 08:33:34;;;;;;;10.35;3.00;;;;;;;21.67;100.00;97912.22;5024187;28;21003;-60
2022/06/12 08:36:00;;;;;;;5.30;3.03;;;;;;;21.69;100.00;97918.16;5018702;28;21212;-61
2022/06/12 08:38:25;;;;;;;5.35;2.92;;;;;;;21.75;100.00;97922.66;5022558;28;20181;-61
2022/06/12 08:41:00;;;;;;;8.98;3.22;;;;;;;21.81;100.00;97919.28;5034945;28;20666;-60
2022/06/12 08:43:33;;;;;;;2.97;2.70;;;;;;;21.92;100.00;97929.34;5034495;28;20208;-60
2022/06/12 08:46:11;;;;;;;5.97;3.05;;;;;;;21.95;100.00;97916.59;5028442;28;20185;-61
2022/06/12 08:48:50;;;;;;;2.63;2.42;;;;;;;21.89;100.00;97909.44;5031718;28;20651;-60
2022/06/12 08:51:25;;;;;;;3.67;2.53;;;;;;;21.97;100.00;97926.97;5042208;28;20205;-60
2022/06/12 08:53:57;;;;;;;2.75;2.60;;;;;;;22.02;100.00;97928.00;5024244;28;20173;-60
2022/06/12 08:56:34;;;;;;;4.00;2.75;;;;;;;22.09;100.00;97925.44;5017564;28;20185;-60
2022/06/12 08:59:14;;;;;;;3.05;2.75;;;;;;;22.16;100.00;97926.31;5020205;28;20190;-61
2022/06/12 09:01:42;;;;;;;2.90;2.70;;;;;;;22.16;100.00;97927.16;5036337;28;20187;-61
2022/06/12 09:04:14;;;;;;;2.67;2.58;;;;;;;22.18;100.00;97929.56;5032320;28;20181;-61
2022/06/12 09:06:51;;;;;;;3.00;2.80;;;;;;;22.15;100.00;97928.13;5036486;28;20191;-61
2022/06/12 09:09:31;;;;;;;3.70;2.97;;;;;;;22.17;100.00;97939.31;5038352;28;20689;-61
2022/06/12 09:12:13;;;;;;;3.08;2.88;;;;;;;22.13;100.00;97939.88;5038295;28;20200;-63
2022/06/12 09:14:41;;;;;;;3.38;3.08;;;;;;;22.11;100.00;97933.97;5027738;28;20191;-61
2022/06/12 09:17:10;;;;;;;4.38;3.30;;;;;;;22.19;100.00;97936.47;5016818;28;20672;-62
2022/06/12 09:19:39;;;;;;;3.53;3.03;;;;;;;22.21;100.00;97934.47;5018442;28;20707;-61
2022/06/12 09:22:46;;;;;;;4.50;3.83;;;;;;;22.25;100.00;97941.03;5032966;28;20196;-62
2022/06/12 09:25:20;;;;;;;4.72;3.67;;;;;;;22.26;100.00;97938.16;5047376;28;21186;-62
2022/06/12 09:28:13;;;;;;;4.05;3.75;;;;;;;22.22;100.00;97946.66;5041029;28;20173;-62
2022/06/12 09:30:49;;;;;;;2.90;2.70;;;;;;;22.20;100.00;97932.84;5041420;28;20173;-62
2022/06/12 09:33:20;;;;;;;2.63;2.38;;;;;;;22.14;100.00;97939.69;5032957;28;20254;-60
2022/06/12 09:36:02;;;;;;;2.80;2.70;;;;;;;22.11;100.00;97939.25;5024957;28;20189;-62
2022/06/12 09:38:46;;;;;;;3.05;2.63;;;;;;;22.09;100.00;97941.25;5016622;28;20955;-62
2022/06/12 09:41:30;;;;;;;3.50;3.20;;;;;;;22.09;100.00;97938.63;5019983;28;20186;-61
2022/06/12 09:44:20;;;;;;;4.90;2.78;;;;;;;22.14;100.00;97937.03;5030906;28;20312;-61
2022/06/12 09:47:02;;;;;;;3.45;3.10;;;;;;;22.14;100.00;97928.34;5030428;28;20178;-61
2022/06/12 09:49:33;;;;;;;2.95;2.75;;;;;;;22.13;100.00;97927.50;5032357;28;20181;-61
2022/06/12 09:52:17;;;;;;;3.47;3.03;;;;;;;22.27;100.00;97936.38;5043683;28;20796;-61
2022/06/12 09:54:51;;;;;;;3.28;2.97;;;;;;;22.43;100.00;97941.38;5040239;28;20169;-61
2022/06/12 09:57:27;;;;;;;6.00;2.67;;;;;;;22.52;100.00;97941.06;5048289;28;20192;-61
2022/06/12 10:00:16;;;;;;;3.35;2.40;;;;;;;22.52;100.00;97948.16;5051826;28;20205;-61
2022/06/12 10:03:11;;;;;;;3.05;2.83;;;;;;;22.57;100.00;97937.84;5052090;28;20215;-61
2022/06/12 10:05:42;;;;;;;3.67;2.95;;;;;;;22.65;100.00;97938.53;5050895;28;20193;-61
2022/06/12 10:08:37;;;;;;;3.17;2.45;;;;;;;22.65;100.00;97935.06;5051947;28;20173;-61
2022/06/12 10:11:09;;;;;;;3.28;2.65;;;;;;;22.68;100.00;97932.84;5047196;28;20188;-61
2022/06/12 10:13:40;;;;;;;2.78;2.58;;;;;;;22.84;100.00;97943.13;5051907;28;20207;-61
2022/06/12 10:16:12;;;;;;;3.28;2.92;;;;;;;22.88;100.00;97939.09;5051749;28;20161;-62
2022/06/12 10:18:51;;;;;;;2.50;2.40;;;;;;;22.96;100.00;97946.06;5051578;28;20252;-62
2022/06/12 10:21:21;;;;;;;2.78;2.58;;;;;;;22.92;100.00;97935.06;5051847;28;20646;-62
2022/06/12 10:23:51;;;;;;;2.50;2.30;;;;;;;22.96;100.00;97933.66;5050709;28;20662;-61
2022/06/12 10:26:25;;;;;;;2.85;2.65;;;;;;;23.01;100.00;97933.09;5051514;28;20642;-61
2022/06/12 10:29:01;;;;;;;2.80;2.60;;;;;;;23.06;100.00;97935.94;5051541;28;20154;-60
2022/06/12 10:31:26;;;;;;;2.60;2.50;;;;;;;23.04;100.00;97935.34;5051479;28;20177;-61
2022/06/12 10:34:03;;;;;;;2.45;2.35;;;;;;;23.06;100.00;97938.59;5051406;28;20200;-62
2022/06/12 10:36:32;;;;;;;2.38;2.28;;;;;;;23.06;100.00;97938.59;5051456;28;20157;-61
2022/06/12 10:39:10;;;;;;;2.75;2.55;;;;;;;22.99;100.00;97935.09;5051398;28;20616;-61
2022/06/12 10:41:47;;;;;;;3.20;3.00;;;;;;;22.87;100.00;97926.91;5051394;28;20709;-61
2022/06/12 10:44:36;;;;;;;4.75;2.63;;;;;;;22.95;100.00;97931.22;5051501;28;20165;-61
2022/06/12 10:47:12;;;;;;;3.30;3.00;;;;;;;23.06;100.00;97935.94;5053768;28;20185;-60
2022/06/12 10:49:38;;;;;;;3.00;2.80;;;;;;;23.11;100.00;97934.38;5055778;28;20571;-61
2022/06/12 10:52:17;;;;;;;2.72;2.53;;;;;;;23.06;100.00;97930.66;5055181;28;20173;-60
2022/06/12 10:54:45;;;;;;;3.50;2.97;;;;;;;23.12;100.00;97927.25;5053928;28;20157;-61
2022/06/12 10:57:32;;;;;;;4.07;3.22;;;;;;;23.20;100.00;97927.94;5055006;28;20189;-60
2022/06/12 11:00:11;;;;;;;3.40;3.10;;;;;;;23.20;100.00;97927.13;5055135;28;20181;-60
2022/06/12 11:02:49;;;;;;;3.35;3.05;;;;;;;23.18;100.00;97926.50;5055186;28;20165;-61
2022/06/12 11:05:29;;;;;;;3.20;2.95;;;;;;;23.18;100.00;97926.50;5054822;28;20176;-61
2022/06/12 11:08:13;;;;;;;3.00;2.60;;;;;;;23.13;100.00;97931.53;5054871;28;20161;-62
2022/06/12 11:10:44;;;;;;;6.38;4.18;;;;;;;23.10;100.00;97924.00;5055009;28;20172;-62
2022/06/12 11:13:37;;;;;;;5.57;3.70;;;;;;;23.02;100.00;97924.97;5055032;28;20223;-61
2022/06/12 11:16:21;;;;;;;3.70;3.50;;;;;;;22.97;100.00;97932.63;5054899;28;20170;-61
2022/06/12 11:19:04;;;;;;;3.78;3.40;;;;;;;22.89;100.00;97934.66;5054680;28;20176;-61
2022/06/12 11:21:48;;;;;;;3.60;2.90;;;;;;;22.96;100.00;97927.59;5053420;28;20173;-62
2022/06/12 11:24:24;;;;;;;3.08;2.65;;;;;;;22.97;100.00;97927.38;5054732;28;20165;-62
2022/06/12 11:27:01;;;;;;;3.05;2.85;;;;;;;23.03;100.00;97931.91;5053464;28;20157;-61
2022/06/12 11:30:00;;;;;;;2.40;2.20;;;;;;;23.08;100.00;97936.59;5054440;28;20252;-60
2022/06/12 11:32:31;;;;;;;2.60;2.50;;;;;;;23.04;100.00;97927.41;5052784;28;20181;-61
2022/06/12 11:35:17;;;;;;;8.23;2.55;;;;;;;23.01;100.00;97928.63;5054667;28;20181;-61
2022/06/12 11:38:08;;;;;;;2.78;2.58;;;;;;;23.08;100.00;97924.19;5053018;28;20578;-61
2022/06/12 11:40:39;;;;;;;2.63;2.42;;;;;;;23.14;100.00;97923.41;5053589;28;20694;-61
2022/06/12 11:43:20;;;;;;;3.70;2.13;;;;;;;23.20;100.00;97927.13;5054287;28;20244;-61
2022/06/12 11:46:15;;;;;;;2.50;2.40;;;;;;;23.24;100.00;97933.66;5054170;28;20204;-60
2022/06/12 11:48:55;;;;;;;2.05;1.95;;;;;;;23.22;100.00;97933.84;5053538;28;20185;-61
2022/06/12 11:51:33;;;;;;;2.30;2.20;;;;;;;23.19;100.00;97925.50;5053064;28;20574;-60
2022/06/12 11:54:29;;;;;;;2.22;2.10;;;;;;;23.21;100.00;97934.03;5054146;28;20157;-61
2022/06/12 11:57:09;;;;;;;2.00;1.90;;;;;;;23.29;100.00;97941.78;5053507;28;20673;-60
2022/06/12 11:59:55;;;;;;;2.30;2.20;;;;;;;23.33;100.00;97927.19;5053905;28;20236;-61
2022/06/12 12:02:33;;;;;;;2.30;2.17;;;;;;;23.34;100.00;97929.63;5053887;28;20165;-60